ドーハ の空港の天気 - METARとTAF

ドーハ国際空港 ( OTBD / DOH ) - カタール ドーハ
飛行場実況気象(Metar)
観測時間07/29 05:30 AST (07/29 02:30 UTC)
風向・風速西北西 3m/s
視程8000m
天気現象
なし
気温36℃
湿度47%
気圧994hPa
METAROTBD 290230Z 29006KT 250V320 8000 NSC 36/23 Q0994 NOSIG
過去の天気等 Google飛行場航空写真 Wunderground天気予報

過去48時間のMETAR

飛行場予報(TAF)
発表時間: 7/29 01:57 AST (7/28 22:57 UTC)
予報対象時間: 29日3時 AST ~ 30日9時 AST
風向・風速北 3m/s
視程8000m
なし
29日3時 AST から 確率 30% で
風向・風速不定 2m/s
視程5000m
天気現象煙霧
29日11時 AST ~ 29日18時 AST に一時的に
風向・風速北 8m/s 瞬間風速 11m/s
29日11時 AST ~ 29日18時 AST に 確率 30% で一時的に
視程5000m
天気現象高い風塵
30日2時 AST ~ 30日4時 AST に徐々に
風向・風速西 3m/s
TAF OTBD 282257Z 2900/3006 35006KT 8000 NSC
PROB30 2900/2905 VRB03KT 5000 HZ
TEMPO 2908/2915 36015G22KT
PROB30 TEMPO 2908/2915 5000 BLDU
BECMG 2923/3001 28005KT